createdAt,value
2019-04-25T00:01:56.199Z,101524.27
2019-04-25T00:04:28.156Z,101536.91
2019-04-25T00:06:59.261Z,101531.58
2019-04-25T00:09:33.309Z,101536.20
2019-04-25T00:12:05.150Z,101535.20
2019-04-25T00:14:36.202Z,101531.33
2019-04-25T00:17:07.747Z,101524.59
2019-04-25T00:19:40.233Z,101524.59
2019-04-25T00:22:31.723Z,101535.95
2019-04-25T00:25:18.004Z,101542.00
2019-04-25T00:27:49.273Z,101542.00
2019-04-25T00:30:22.637Z,101545.95
2019-04-25T00:32:54.227Z,101535.81
2019-04-25T00:35:25.686Z,101551.28
2019-04-25T00:37:57.435Z,101551.28
2019-04-25T00:40:28.755Z,101557.50
2019-04-25T00:43:01.578Z,101555.80
2019-04-25T00:45:33.669Z,101550.95
2019-04-25T00:48:05.343Z,101550.95
2019-04-25T00:50:37.655Z,101543.39
2019-04-25T00:53:08.707Z,101553.48
2019-04-25T00:55:41.428Z,101548.90
2019-04-25T00:58:14.694Z,101546.36
2019-04-25T01:00:51.107Z,101546.36
2019-04-25T01:03:24.204Z,101547.12
2019-04-25T01:05:55.667Z,101546.14
2019-04-25T01:08:27.227Z,101541.22
2019-04-25T01:10:58.875Z,101535.25
2019-04-25T01:13:30.124Z,101542.63
2019-04-25T01:16:03.831Z,101541.80
2019-04-25T01:18:35.448Z,101539.75
2019-04-25T01:21:07.748Z,101535.52
2019-04-25T01:23:38.892Z,101534.36
2019-04-25T01:26:10.352Z,101539.30
2019-04-25T01:28:41.591Z,101539.30
2019-04-25T01:31:14.877Z,101541.28
2019-04-25T01:33:46.771Z,101535.87
2019-04-25T01:36:25.873Z,101534.50
2019-04-25T01:39:11.144Z,101533.84
2019-04-25T01:41:44.215Z,101539.14
2019-04-25T01:44:24.145Z,101535.55
2019-04-25T01:46:56.470Z,101531.28
2019-04-25T01:49:27.636Z,101533.59
2019-04-25T01:51:59.466Z,101530.20
2019-04-25T01:54:31.108Z,101537.56
2019-04-25T01:57:04.175Z,101536.25
2019-04-25T01:59:35.748Z,101537.27
2019-04-25T02:02:08.631Z,101533.16
2019-04-25T02:04:40.079Z,101532.30
2019-04-25T02:07:11.426Z,101530.73
2019-04-25T02:09:43.571Z,101537.42
2019-04-25T02:12:16.336Z,101533.06
2019-04-25T02:14:47.927Z,101529.77
2019-04-25T02:17:19.787Z,101535.13
2019-04-25T02:19:52.029Z,101534.95
2019-04-25T02:22:24.328Z,101538.56
2019-04-25T02:24:56.855Z,101539.89
2019-04-25T02:27:28.209Z,101547.73
2019-04-25T02:30:00.935Z,101543.08
2019-04-25T02:32:34.457Z,101545.25
2019-04-25T02:35:09.523Z,101545.99
2019-04-25T02:37:40.098Z,101545.41
2019-04-25T02:40:11.276Z,101542.37
2019-04-25T02:42:44.227Z,101546.69
2019-04-25T02:45:34.258Z,101543.70
2019-04-25T02:48:19.704Z,101543.73
2019-04-25T02:50:54.097Z,101545.63
2019-04-25T02:53:36.392Z,101548.36
2019-04-25T02:56:25.732Z,101550.64
2019-04-25T02:58:39.022Z,101549.83
2019-04-25T03:01:21.275Z,101546.64
2019-04-25T03:03:45.131Z,101550.55
2019-04-25T03:06:16.230Z,101546.27
2019-04-25T03:08:47.794Z,101547.05
2019-04-25T03:11:20.674Z,101549.55
2019-04-25T03:13:54.364Z,101552.20
2019-04-25T03:16:25.268Z,101553.27
2019-04-25T03:19:00.436Z,101546.97
2019-04-25T03:21:36.393Z,101550.19
2019-04-25T03:24:10.266Z,101551.55
2019-04-25T03:26:41.959Z,101551.87
2019-04-25T03:29:13.751Z,101553.19
2019-04-25T03:31:45.262Z,101552.30
2019-04-25T03:34:20.293Z,101556.74
2019-04-25T03:36:49.332Z,101549.71
2019-04-25T03:39:20.750Z,101553.10
2019-04-25T03:41:51.882Z,101558.58
2019-04-25T03:44:23.676Z,101562.28
2019-04-25T03:46:56.221Z,101561.25
2019-04-25T03:49:27.780Z,101555.44
2019-04-25T03:51:59.364Z,101566.68
2019-04-25T03:54:30.727Z,101561.37
2019-04-25T03:57:04.725Z,101555.23
2019-04-25T03:59:35.419Z,101563.51
2019-04-25T04:02:08.193Z,101566.06
2019-04-25T04:04:39.946Z,101577.13
2019-04-25T04:07:12.733Z,101568.08
2019-04-25T04:09:44.692Z,101565.98
2019-04-25T04:12:17.188Z,101572.48
2019-04-25T04:14:49.947Z,101568.66
2019-04-25T04:17:25.724Z,101574.45
2019-04-25T04:19:58.886Z,101562.77
2019-04-25T04:22:32.083Z,101562.77
2019-04-25T04:25:05.921Z,101572.92
2019-04-25T04:27:37.206Z,101571.55
2019-04-25T04:30:08.786Z,101575.73
2019-04-25T04:32:40.061Z,101568.78
2019-04-25T04:35:11.478Z,101582.44
2019-04-25T04:37:43.230Z,101582.44
2019-04-25T04:40:18.255Z,101577.64
2019-04-25T04:42:50.993Z,101571.83
2019-04-25T04:45:24.325Z,101574.18
2019-04-25T04:47:55.957Z,101577.07
2019-04-25T04:50:27.145Z,101580.47
2019-04-25T04:52:58.778Z,101573.77
2019-04-25T04:55:30.175Z,101577.41
2019-04-25T04:58:01.553Z,101581.55
2019-04-25T05:00:33.839Z,101586.98
2019-04-25T05:03:16.994Z,101586.98
2019-04-25T05:05:55.137Z,101574.50
2019-04-25T05:08:30.875Z,101576.37
2019-04-25T05:11:01.912Z,101589.47
2019-04-25T05:13:34.311Z,101580.98
2019-04-25T05:16:07.039Z,101575.23
2019-04-25T05:18:40.079Z,101575.23
2019-04-25T05:21:15.727Z,101587.95
2019-04-25T05:23:50.708Z,101584.07
2019-04-25T05:26:25.025Z,101578.17
2019-04-25T05:29:00.095Z,101582.27
2019-04-25T05:31:34.182Z,101582.42
2019-04-25T05:34:05.673Z,101575.11
2019-04-25T05:36:40.032Z,101573.83
2019-04-25T05:39:11.689Z,101576.92
2019-04-25T05:41:47.793Z,101579.63
2019-04-25T05:44:19.391Z,101588.36
2019-04-25T05:46:50.997Z,101587.14
2019-04-25T05:49:24.260Z,101583.17
2019-04-25T05:51:57.056Z,101579.81
2019-04-25T05:54:28.481Z,101579.17
2019-04-25T05:57:03.728Z,101583.39
2019-04-25T05:59:36.915Z,101578.43
2019-04-25T06:02:09.195Z,101574.34
2019-04-25T06:04:40.729Z,101578.59
2019-04-25T06:07:14.367Z,101577.27
2019-04-25T06:09:47.523Z,101581.33
2019-04-25T06:12:37.403Z,101586.81
2019-04-25T06:15:09.064Z,101578.47
2019-04-25T06:17:44.808Z,101577.72
2019-04-25T06:20:18.000Z,101574.86
2019-04-25T06:23:03.306Z,101578.13
2019-04-25T06:25:39.466Z,101574.33
2019-04-25T06:28:17.875Z,101576.92
2019-04-25T06:30:49.400Z,101575.78
2019-04-25T06:33:21.301Z,101575.36
2019-04-25T06:35:52.633Z,101575.47
2019-04-25T06:38:26.856Z,101566.88
2019-04-25T06:40:57.347Z,101571.39
2019-04-25T06:43:28.600Z,101561.55
2019-04-25T06:46:14.058Z,101569.34
2019-04-25T06:48:47.305Z,101566.64
2019-04-25T06:51:19.074Z,101561.61
2019-04-25T06:53:51.379Z,101556.98
2019-04-25T06:56:25.259Z,101563.30
2019-04-25T06:58:57.967Z,101564.86
2019-04-25T07:01:30.448Z,101564.00
2019-04-25T07:04:01.933Z,101561.39
2019-04-25T07:06:33.857Z,101558.91
2019-04-25T07:09:09.784Z,101553.66
2019-04-25T07:11:44.241Z,101556.58
2019-04-25T07:14:18.424Z,101557.50
2019-04-25T07:16:50.625Z,101553.55
2019-04-25T07:19:24.768Z,101554.23
2019-04-25T07:21:55.082Z,101555.36
2019-04-25T07:24:27.250Z,101553.50
2019-04-25T07:27:03.825Z,101551.23
2019-04-25T07:29:48.766Z,101551.78
2019-04-25T07:32:29.630Z,101551.84
2019-04-25T07:34:57.300Z,101544.00
2019-04-25T07:37:29.736Z,101552.45
2019-04-25T07:40:00.977Z,101551.52
2019-04-25T07:42:34.306Z,101549.25
2019-04-25T07:45:08.756Z,101549.05
2019-04-25T07:47:39.929Z,101544.83
2019-04-25T07:50:11.314Z,101545.17
2019-04-25T07:52:44.181Z,101549.36
2019-04-25T07:55:16.676Z,101546.80
2019-04-25T07:57:48.027Z,101536.94
2019-04-25T08:00:19.779Z,101542.48
2019-04-25T08:02:50.829Z,101543.20
2019-04-25T08:05:24.071Z,101541.27
2019-04-25T08:07:56.206Z,101543.00
2019-04-25T08:10:27.987Z,101542.00
2019-04-25T08:12:59.281Z,101544.47
2019-04-25T08:15:33.521Z,101538.09
2019-04-25T08:18:06.620Z,101538.30
2019-04-25T08:20:37.829Z,101535.52
2019-04-25T08:23:10.404Z,101538.37
2019-04-25T08:25:43.270Z,101522.27
2019-04-25T08:28:14.530Z,101527.41
2019-04-25T08:30:45.888Z,101526.66
2019-04-25T08:33:17.125Z,101522.20
2019-04-25T08:36:03.435Z,101524.08
2019-04-25T08:38:21.462Z,101514.77
2019-04-25T08:40:54.221Z,101519.50
2019-04-25T08:43:25.899Z,101518.31
2019-04-25T08:45:57.052Z,101512.91
2019-04-25T08:48:30.442Z,101509.13
2019-04-25T08:51:07.110Z,101510.70
2019-04-25T08:53:40.943Z,101502.94
2019-04-25T08:56:20.157Z,101509.76
2019-04-25T08:59:08.497Z,101504.37
2019-04-25T09:01:45.203Z,101504.23
2019-04-25T09:04:18.298Z,101497.48
2019-04-25T09:06:50.000Z,101490.02
2019-04-25T09:09:21.662Z,101481.69
2019-04-25T09:11:54.355Z,101480.45
2019-04-25T09:14:26.204Z,101481.80
2019-04-25T09:16:57.611Z,101475.63
2019-04-25T09:19:29.314Z,101470.36
2019-04-25T09:22:00.574Z,101472.28
2019-04-25T09:24:32.203Z,101470.70
2019-04-25T09:27:03.797Z,101473.11
2019-04-25T09:29:35.701Z,101464.28
2019-04-25T09:32:08.189Z,101456.70
2019-04-25T09:34:39.959Z,101462.54
2019-04-25T09:37:11.301Z,101460.22
2019-04-25T09:39:44.375Z,101462.83
2019-04-25T09:42:16.380Z,101459.75
2019-04-25T09:45:04.497Z,101456.95
2019-04-25T09:47:37.153Z,101461.55
2019-04-25T09:50:13.904Z,101453.76
2019-04-25T09:52:47.090Z,101445.47
2019-04-25T09:55:25.907Z,101446.86
2019-04-25T09:58:04.085Z,101448.26
2019-04-25T10:00:38.099Z,101447.14
2019-04-25T10:03:09.630Z,101441.58
2019-04-25T10:05:40.973Z,101445.20
2019-04-25T10:08:13.453Z,101438.53
2019-04-25T10:10:44.736Z,101439.10
2019-04-25T10:13:16.199Z,101433.23
2019-04-25T10:16:07.461Z,101435.61
2019-04-25T10:18:39.222Z,101436.31
2019-04-25T10:21:11.395Z,101434.67
2019-04-25T10:23:44.088Z,101427.78
2019-04-25T10:26:16.539Z,101419.52
2019-04-25T10:28:47.861Z,101426.97
2019-04-25T10:31:19.126Z,101417.53
2019-04-25T10:33:50.383Z,101408.70
2019-04-25T10:36:23.264Z,101418.52
2019-04-25T10:39:07.229Z,101411.17
2019-04-25T10:41:29.442Z,101407.97
2019-04-25T10:44:03.335Z,101410.73
2019-04-25T10:46:34.594Z,101403.14
2019-04-25T10:49:05.803Z,101408.70
2019-04-25T10:51:37.384Z,101396.89
2019-04-25T10:54:08.730Z,101403.80
2019-04-25T10:56:40.138Z,101404.70
2019-04-25T10:59:11.263Z,101396.33
2019-04-25T11:01:44.687Z,101396.90
2019-04-25T11:04:17.293Z,101393.70
2019-04-25T11:06:49.319Z,101391.76
2019-04-25T11:09:25.324Z,101393.31
2019-04-25T11:11:56.375Z,101393.64
2019-04-25T11:14:28.121Z,101387.02
2019-04-25T11:16:59.617Z,101386.81
2019-04-25T11:19:31.221Z,101371.78
2019-04-25T11:22:03.985Z,101377.08
2019-04-25T11:24:36.717Z,101375.63
2019-04-25T11:27:08.134Z,101371.82
2019-04-25T11:29:39.270Z,101377.98
2019-04-25T11:32:10.514Z,101372.45
2019-04-25T11:34:43.151Z,101363.11
2019-04-25T11:37:14.775Z,101367.95
2019-04-25T11:39:48.046Z,101369.81
2019-04-25T11:42:19.623Z,101369.66
2019-04-25T11:44:51.146Z,101366.70
2019-04-25T11:47:24.179Z,101370.68
2019-04-25T11:49:55.770Z,101365.98
2019-04-25T11:52:30.139Z,101359.80
2019-04-25T11:55:00.055Z,101352.06
2019-04-25T11:57:31.419Z,101344.43
2019-04-25T12:00:04.280Z,101334.86
2019-04-25T12:02:36.503Z,101338.53
2019-04-25T12:05:08.035Z,101338.73
2019-04-25T12:07:39.623Z,101337.48
2019-04-25T12:10:11.180Z,101335.70
2019-04-25T12:12:43.310Z,101332.37
2019-04-25T12:15:15.219Z,101333.02
2019-04-25T12:17:47.445Z,101334.72
2019-04-25T12:20:18.722Z,101333.41
2019-04-25T12:22:51.641Z,101325.30
2019-04-25T12:25:23.740Z,101271.98
2019-04-25T12:27:55.222Z,101291.72
2019-04-25T12:30:37.101Z,101332.41
2019-04-25T12:32:59.345Z,101325.98
2019-04-25T12:35:30.904Z,101318.14
2019-04-25T12:38:03.413Z,101315.54
2019-04-25T12:40:34.724Z,101311.33
2019-04-25T12:43:06.043Z,101311.97
2019-04-25T12:45:38.747Z,101308.11
2019-04-25T12:48:11.641Z,101308.63
2019-04-25T12:50:43.962Z,101305.08
2019-04-25T12:53:15.433Z,101305.56
2019-04-25T12:55:47.486Z,101298.20
2019-04-25T12:58:18.867Z,101297.63
2019-04-25T13:00:54.214Z,101295.14
2019-04-25T13:03:24.225Z,101294.21
2019-04-25T13:05:56.494Z,101295.98
2019-04-25T13:08:27.629Z,101296.93
2019-04-25T13:11:07.948Z,101290.89
2019-04-25T13:13:33.757Z,101291.02
2019-04-25T13:16:05.512Z,101284.72
2019-04-25T13:18:38.246Z,101282.81
2019-04-25T13:21:09.815Z,101280.17
2019-04-25T13:23:44.251Z,101278.78
2019-04-25T13:26:17.257Z,101269.72
2019-04-25T13:29:05.547Z,101272.31
2019-04-25T13:31:41.544Z,101271.70
2019-04-25T13:34:14.903Z,101268.41
2019-04-25T13:36:46.261Z,101264.74
2019-04-25T13:39:19.027Z,101259.84
2019-04-25T13:41:50.254Z,101266.10
2019-04-25T13:44:21.456Z,101253.70
2019-04-25T13:46:53.327Z,101258.03
2019-04-25T13:49:25.031Z,101251.30
2019-04-25T13:51:57.227Z,101257.13
2019-04-25T13:54:28.846Z,101246.87
2019-04-25T13:57:00.524Z,101252.53
2019-04-25T13:59:32.609Z,101245.48
2019-04-25T14:02:06.278Z,101239.73
2019-04-25T14:04:37.841Z,101242.70
2019-04-25T14:07:09.207Z,101232.44
2019-04-25T14:09:40.919Z,101231.94
2019-04-25T14:12:13.995Z,101239.25
2019-04-25T14:14:45.757Z,101231.96
2019-04-25T14:17:18.974Z,101237.50
2019-04-25T14:20:07.122Z,101232.72
2019-04-25T14:22:39.230Z,101235.24
2019-04-25T14:25:10.409Z,101232.34
2019-04-25T14:27:43.402Z,101233.87
2019-04-25T14:30:17.328Z,101224.29
2019-04-25T14:32:48.366Z,101228.14
2019-04-25T14:35:19.624Z,101219.50
2019-04-25T14:37:51.260Z,101224.89
2019-04-25T14:40:24.706Z,101218.06
2019-04-25T14:42:56.423Z,101216.70
2019-04-25T14:45:40.327Z,101208.91
2019-04-25T14:48:01.273Z,101205.05
2019-04-25T14:50:32.815Z,101201.27
2019-04-25T14:53:04.475Z,101202.55
2019-04-25T14:55:49.011Z,101202.77
2019-04-25T14:58:20.678Z,101200.03
2019-04-25T15:00:52.438Z,101203.48
2019-04-25T15:03:24.133Z,101201.56
2019-04-25T15:05:55.754Z,101188.63
2019-04-25T15:08:28.508Z,101185.97
2019-04-25T15:10:59.894Z,101184.55
2019-04-25T15:13:33.067Z,101192.29
2019-04-25T15:16:04.948Z,101185.63
2019-04-25T15:18:46.117Z,101179.78
2019-04-25T15:21:09.239Z,101188.22
2019-04-25T15:23:40.921Z,101182.47
2019-04-25T15:26:12.738Z,101179.06
2019-04-25T15:28:44.297Z,101178.23
2019-04-25T15:31:16.914Z,101178.23
2019-04-25T15:33:48.566Z,101175.20
2019-04-25T15:36:27.297Z,101170.53
2019-04-25T15:39:00.469Z,101170.45
2019-04-25T15:41:37.491Z,101172.83
2019-04-25T15:44:26.655Z,101170.98
2019-04-25T15:46:59.509Z,101169.91
2019-04-25T15:49:31.264Z,101163.06
2019-04-25T15:52:02.517Z,101167.17
2019-04-25T15:54:33.939Z,101165.72
2019-04-25T15:57:05.833Z,101162.59
2019-04-25T15:59:37.477Z,101162.54
2019-04-25T16:02:10.472Z,101164.68
2019-04-25T16:04:42.113Z,101170.62
2019-04-25T16:07:13.465Z,101164.26
2019-04-25T16:09:44.856Z,101161.58
2019-04-25T16:12:16.547Z,101156.88
2019-04-25T16:14:48.701Z,101161.19
2019-04-25T16:17:20.186Z,101169.78
2019-04-25T16:19:52.868Z,101164.78
2019-04-25T16:22:25.478Z,101161.52
2019-04-25T16:24:57.268Z,101163.95
2019-04-25T16:27:28.979Z,101169.82
2019-04-25T16:30:00.224Z,101169.48
2019-04-25T16:32:32.439Z,101163.20
2019-04-25T16:35:05.476Z,101167.49
2019-04-25T16:37:36.895Z,101168.36
2019-04-25T16:40:08.254Z,101169.55
2019-04-25T16:42:40.013Z,101164.59
2019-04-25T16:45:11.978Z,101164.02
2019-04-25T16:47:43.143Z,101167.25
2019-04-25T16:50:15.559Z,101171.52
2019-04-25T16:52:46.634Z,101163.18
2019-04-25T16:55:18.491Z,101166.22
2019-04-25T16:57:49.834Z,101170.67
2019-04-25T17:00:23.029Z,101172.70
2019-04-25T17:02:54.557Z,101172.03
2019-04-25T17:05:27.283Z,101182.48
2019-04-25T17:07:58.392Z,101184.62
2019-04-25T17:10:31.457Z,101188.40
2019-04-25T17:13:02.842Z,101187.85
2019-04-25T17:15:42.081Z,101184.20
2019-04-25T17:18:15.543Z,101184.11
2019-04-25T17:20:57.391Z,101186.13
2019-04-25T17:23:29.011Z,101183.69
2019-04-25T17:26:00.707Z,101187.84
2019-04-25T17:28:34.894Z,101188.34
2019-04-25T17:31:07.703Z,101188.88
2019-04-25T17:33:52.751Z,101194.31
2019-04-25T17:36:28.893Z,101199.30
2019-04-25T17:39:01.775Z,101207.53
2019-04-25T17:41:34.660Z,101206.42
2019-04-25T17:44:06.450Z,101209.29
2019-04-25T17:46:38.020Z,101215.97
2019-04-25T17:49:09.728Z,101216.79
2019-04-25T17:51:41.970Z,101207.38
2019-04-25T17:54:13.273Z,101212.23
2019-04-25T17:56:44.903Z,101215.64
2019-04-25T17:59:16.351Z,101221.06
2019-04-25T18:01:47.979Z,101211.27
2019-04-25T18:04:19.347Z,101214.47
2019-04-25T18:06:50.902Z,101214.31
2019-04-25T18:09:22.667Z,101217.23
2019-04-25T18:11:54.313Z,101211.27
2019-04-25T18:14:25.872Z,101215.36
2019-04-25T18:16:57.314Z,101218.20
2019-04-25T18:19:48.732Z,101218.29
2019-04-25T18:22:37.151Z,101208.34
2019-04-25T18:25:13.103Z,101208.22
2019-04-25T18:27:46.455Z,101215.12
2019-04-25T18:30:18.133Z,101215.99
2019-04-25T18:32:57.358Z,101211.01
2019-04-25T18:35:30.403Z,101217.89
2019-04-25T18:38:03.699Z,101218.22
2019-04-25T18:40:39.854Z,101216.18
2019-04-25T18:43:19.053Z,101215.77
2019-04-25T18:45:55.262Z,101218.95
2019-04-25T18:48:29.391Z,101221.36
2019-04-25T18:51:04.449Z,101219.02
2019-04-25T18:53:48.131Z,101218.44
2019-04-25T18:56:24.296Z,101207.63
2019-04-25T18:59:12.333Z,101214.44
2019-04-25T19:02:03.440Z,101213.84
2019-04-25T19:04:52.212Z,101209.63
2019-04-25T19:07:29.899Z,101212.83
2019-04-25T19:10:04.624Z,101208.52
2019-04-25T19:12:40.205Z,101208.88
2019-04-25T19:15:22.712Z,101204.75
2019-04-25T19:18:12.329Z,101200.67
2019-04-25T19:20:46.493Z,101203.28
2019-04-25T19:23:29.401Z,101204.27
2019-04-25T19:26:04.940Z,101211.64
2019-04-25T19:28:48.109Z,101206.78
2019-04-25T19:31:20.867Z,101208.59
2019-04-25T19:33:52.989Z,101205.88
2019-04-25T19:36:31.170Z,101204.14
2019-04-25T19:39:02.751Z,101203.20
2019-04-25T19:41:38.821Z,101192.09
2019-04-25T19:44:15.578Z,101203.38
2019-04-25T19:46:49.542Z,101197.48
2019-04-25T19:49:22.079Z,101195.30
2019-04-25T19:51:56.272Z,101195.87
2019-04-25T19:54:27.850Z,101194.88
2019-04-25T19:57:00.421Z,101184.95
2019-04-25T19:59:36.090Z,101189.87
2019-04-25T20:02:09.883Z,101193.52
2019-04-25T20:05:02.219Z,101190.66
2019-04-25T20:07:36.986Z,101192.69
2019-04-25T20:10:26.095Z,101182.47
2019-04-25T20:12:59.917Z,101190.52
2019-04-25T20:15:36.691Z,101192.28
2019-04-25T20:18:10.289Z,101182.25
2019-04-25T20:20:41.391Z,101185.01
2019-04-25T20:23:14.521Z,101186.28
2019-04-25T20:25:48.777Z,101184.03
2019-04-25T20:28:23.438Z,101189.02
2019-04-25T20:30:55.169Z,101186.97
2019-04-25T20:33:35.582Z,101190.59
2019-04-25T20:36:17.211Z,101193.94
2019-04-25T20:38:40.380Z,101189.67
2019-04-25T20:41:22.991Z,101192.19
2019-04-25T20:43:56.969Z,101189.03
2019-04-25T20:46:30.853Z,101185.05
2019-04-25T20:49:05.404Z,101185.30
2019-04-25T20:51:37.032Z,101192.28
2019-04-25T20:54:15.857Z,101196.55
2019-04-25T20:56:49.763Z,101192.56
2019-04-25T20:59:40.354Z,101193.06
2019-04-25T21:02:14.840Z,101197.62
2019-04-25T21:04:48.922Z,101191.48
2019-04-25T21:07:22.288Z,101195.17
2019-04-25T21:09:53.837Z,101190.81
2019-04-25T21:12:26.479Z,101192.92
2019-04-25T21:15:04.315Z,101188.94
2019-04-25T21:17:58.374Z,101192.33
2019-04-25T21:20:29.858Z,101192.33
2019-04-25T21:23:02.219Z,101190.50
2019-04-25T21:25:34.539Z,101193.53
2019-04-25T21:28:06.077Z,101199.18
2019-04-25T21:30:38.925Z,101188.36
2019-04-25T21:33:13.644Z,101192.00
2019-04-25T21:35:46.020Z,101200.03
2019-04-25T21:38:17.879Z,101197.04
2019-04-25T21:40:53.953Z,101196.86
2019-04-25T21:43:31.528Z,101197.74
2019-04-25T21:46:06.151Z,101198.63
2019-04-25T21:48:37.602Z,101198.77
2019-04-25T21:51:26.768Z,101202.15
2019-04-25T21:54:07.127Z,101195.17
2019-04-25T21:56:42.763Z,101201.44
2019-04-25T21:59:15.561Z,101193.22
2019-04-25T22:01:48.645Z,101193.22
2019-04-25T22:04:20.913Z,101186.17
2019-04-25T22:06:52.771Z,101197.88
2019-04-25T22:09:26.317Z,101190.92
2019-04-25T22:11:59.324Z,101199.45
2019-04-25T22:14:31.016Z,101198.05
2019-04-25T22:17:03.884Z,101198.05
2019-04-25T22:19:37.412Z,101208.09
2019-04-25T22:22:13.558Z,101203.55
2019-04-25T22:24:44.699Z,101200.77
2019-04-25T22:27:17.891Z,101200.77
2019-04-25T22:29:50.982Z,101204.13
2019-04-25T22:32:25.223Z,101212.86
2019-04-25T22:35:08.947Z,101207.27
2019-04-25T22:37:40.613Z,101199.47
2019-04-25T22:40:12.187Z,101202.84
2019-04-25T22:42:43.595Z,101197.56
2019-04-25T22:45:15.348Z,101202.77
2019-04-25T22:47:48.242Z,101195.47
2019-04-25T22:50:21.725Z,101199.86
2019-04-25T22:52:55.848Z,101203.50
2019-04-25T22:55:27.093Z,101213.48
2019-04-25T22:58:01.219Z,101196.40
2019-04-25T23:00:37.567Z,101198.42
2019-04-25T23:03:20.174Z,101197.11
2019-04-25T23:05:54.190Z,101198.34
2019-04-25T23:08:25.839Z,101199.59
2019-04-25T23:10:57.187Z,101203.50
2019-04-25T23:13:28.838Z,101202.77
2019-04-25T23:16:00.397Z,101199.02
2019-04-25T23:18:31.815Z,101196.91
2019-04-25T23:21:04.009Z,101193.92
2019-04-25T23:23:41.914Z,101184.92
2019-04-25T23:26:22.067Z,101191.96
2019-04-25T23:28:55.399Z,101196.33
2019-04-25T23:31:31.639Z,101190.09
2019-04-25T23:34:04.528Z,101189.36
2019-04-25T23:36:37.164Z,101184.79
2019-04-25T23:39:14.400Z,101178.77
2019-04-25T23:41:47.248Z,101180.64
2019-04-25T23:44:19.623Z,101189.25
2019-04-25T23:46:51.508Z,101178.38
2019-04-25T23:49:23.037Z,101178.64
2019-04-25T23:51:54.381Z,101177.16
2019-04-25T23:54:26.044Z,101175.16
2019-04-25T23:56:58.343Z,101177.22
2019-04-25T23:59:29.934Z,101171.97
